Time;durP1;ratioP1;P1;durP2;ratioP2;P2;SDS_P1;SDS_P2;PMS_P1;PMS_P2;Temp;Humidity;BMP_temperature;BMP_pressure;BME280_temperature;BME280_humidity;BME280_pressure;Samples;Min_cycle;Max_cycle;Signal;HPM_P1;HPM_P2
2023/06/05 00:02:08;;;;;;;3.78;2.33;;;18.00;87.90;;;;;;5023068;28;21110;-58
2023/06/05 00:04:36;;;;;;;5.85;2.25;;;18.00;88.00;;;;;;5025058;28;20049;-59
2023/06/05 00:07:02;;;;;;;4.03;2.35;;;17.90;88.00;;;;;;5020339;28;20120;-59
2023/06/05 00:09:27;;;;;;;5.90;2.28;;;17.90;88.20;;;;;;5025205;28;20547;-58
2023/06/05 00:11:53;;;;;;;3.45;2.20;;;17.90;88.40;;;;;;5024182;28;20599;-59
2023/06/05 00:14:19;;;;;;;4.75;2.33;;;17.80;88.90;;;;;;5024816;28;20093;-59
2023/06/05 00:16:45;;;;;;;6.82;2.00;;;17.80;89.10;;;;;;5023670;28;20046;-59
2023/06/05 00:19:12;;;;;;;6.78;3.00;;;17.80;89.30;;;;;;5024471;28;20481;-59
2023/06/05 00:21:37;;;;;;;5.00;2.28;;;17.80;89.50;;;;;;5024000;28;20089;-58
2023/06/05 00:24:03;;;;;;;3.15;1.70;;;17.80;89.60;;;;;;5026366;28;20826;-58
2023/06/05 00:26:29;;;;;;;4.63;2.20;;;17.70;89.90;;;;;;5022669;28;20133;-58
2023/06/05 00:28:55;;;;;;;4.18;1.85;;;17.60;90.10;;;;;;5024551;28;20049;-59
2023/06/05 00:31:21;;;;;;;5.28;2.38;;;17.60;90.20;;;;;;5021889;28;20049;-58
2023/06/05 00:33:48;;;;;;;12.65;3.00;;;17.60;90.30;;;;;;5024476;28;20037;-59
2023/06/05 00:36:13;;;;;;;6.10;2.30;;;17.60;90.30;;;;;;5024301;28;20543;-58
2023/06/05 00:38:39;;;;;;;7.03;2.83;;;17.50;90.50;;;;;;5025427;28;20053;-58
2023/06/05 00:41:05;;;;;;;13.43;2.78;;;17.50;90.60;;;;;;5023355;28;20416;-58
2023/06/05 00:43:31;;;;;;;7.78;2.63;;;17.40;91.00;;;;;;5023688;28;20041;-58
2023/06/05 00:46:02;;;;;;;6.63;3.40;;;17.30;91.10;;;;;;5024427;28;20052;-59
2023/06/05 00:48:29;;;;;;;7.78;2.42;;;17.30;91.10;;;;;;5025801;28;20073;-58
2023/06/05 00:50:56;;;;;;;3.97;2.33;;;17.30;91.20;;;;;;5028519;28;20080;-58
2023/06/05 00:53:24;;;;;;;3.22;1.33;;;17.30;91.40;;;;;;5026253;28;20108;-58
2023/06/05 00:55:50;;;;;;;7.38;3.03;;;17.20;91.50;;;;;;5026471;28;20034;-59
2023/06/05 00:58:17;;;;;;;8.32;2.83;;;17.10;91.60;;;;;;5027976;28;20056;-58
2023/06/05 01:00:45;;;;;;;3.83;2.42;;;17.10;91.60;;;;;;5028602;28;20041;-59
2023/06/05 01:03:12;;;;;;;6.68;3.10;;;17.10;91.70;;;;;;5028590;28;20046;-59
2023/06/05 01:05:38;;;;;;;7.35;3.20;;;17.00;92.00;;;;;;5024123;28;20054;-59
2023/06/05 01:08:05;;;;;;;7.13;3.40;;;17.00;92.20;;;;;;5025888;28;20185;-59
2023/06/05 01:10:32;;;;;;;6.50;2.83;;;17.00;92.10;;;;;;5011693;28;20060;-58
2023/06/05 01:13:00;;;;;;;7.88;3.20;;;17.00;92.10;;;;;;5027010;28;20800;-61
2023/06/05 01:15:29;;;;;;;5.72;2.70;;;17.00;92.20;;;;;;5027027;28;20522;-58
2023/06/05 01:17:57;;;;;;;5.22;2.97;;;17.00;92.20;;;;;;5026446;28;20531;-58
2023/06/05 01:20:22;;;;;;;10.07;3.47;;;16.90;92.50;;;;;;5025691;28;20046;-57
2023/06/05 01:22:52;;;;;;;4.38;2.35;;;16.90;92.70;;;;;;5025982;28;20092;-58
2023/06/05 01:25:18;;;;;;;5.85;2.95;;;16.80;92.80;;;;;;5026028;28;20046;-58
2023/06/05 01:28:08;;;;;;;8.38;3.03;;;16.80;92.70;;;;;;5026077;28;20697;-58
2023/06/05 01:30:36;;;;;;;11.20;3.00;;;16.70;92.90;;;;;;5022027;28;20617;-59
2023/06/05 01:33:17;;;;;;;4.97;2.65;;;16.70;93.00;;;;;;5057242;28;20046;-58
2023/06/05 01:35:45;;;;;;;4.30;2.55;;;16.70;93.10;;;;;;5026866;28;20077;-58
2023/06/05 01:38:11;;;;;;;7.05;3.75;;;16.60;93.20;;;;;;5024831;28;20045;-58
2023/06/05 01:40:38;;;;;;;8.95;3.28;;;16.60;93.10;;;;;;5027190;28;20421;-59
2023/06/05 01:43:07;;;;;;;7.78;3.58;;;16.60;93.20;;;;;;5026632;28;20061;-59
2023/06/05 01:45:33;;;;;;;6.15;3.58;;;16.50;93.40;;;;;;5024926;28;20046;-59
2023/06/05 01:47:59;;;;;;;11.95;4.55;;;16.50;93.30;;;;;;5025906;28;20132;-59
2023/06/05 01:50:26;;;;;;;11.65;3.13;;;16.50;93.40;;;;;;5025948;28;20058;-58
2023/06/05 01:52:52;;;;;;;9.02;3.53;;;16.50;93.50;;;;;;5026783;28;20044;-59
2023/06/05 01:55:26;;;;;;;4.20;3.17;;;16.40;93.60;;;;;;5025651;28;20523;-58
2023/06/05 01:57:52;;;;;;;4.97;3.08;;;16.40;93.60;;;;;;5026210;28;20601;-58
2023/06/05 02:00:18;;;;;;;6.22;2.92;;;16.30;93.70;;;;;;5023408;28;20045;-59
2023/06/05 02:02:47;;;;;;;16.58;4.22;;;16.30;93.70;;;;;;5006672;28;20116;-58
2023/06/05 02:05:14;;;;;;;3.65;2.38;;;16.30;93.80;;;;;;5025723;28;20105;-59
2023/06/05 02:07:41;;;;;;;6.70;2.67;;;16.30;94.00;;;;;;5025662;28;20038;-57
2023/06/05 02:10:08;;;;;;;8.25;3.50;;;16.30;93.90;;;;;;5025926;28;20041;-58
2023/06/05 02:12:37;;;;;;;5.60;2.67;;;16.20;93.90;;;;;;5009426;28;20048;-58
2023/06/05 02:15:03;;;;;;;13.38;4.05;;;16.10;94.10;;;;;;5042066;28;20046;-58
2023/06/05 02:17:29;;;;;;;9.43;3.58;;;16.10;94.10;;;;;;5025484;28;20100;-58
2023/06/05 02:19:55;;;;;;;9.35;2.95;;;16.10;94.30;;;;;;5026272;28;20088;-58
2023/06/05 02:22:23;;;;;;;6.13;2.83;;;16.00;94.20;;;;;;5018633;28;20038;-58
2023/06/05 02:24:51;;;;;;;9.35;4.13;;;16.00;94.40;;;;;;5025453;28;20049;-58
2023/06/05 02:27:17;;;;;;;9.35;3.15;;;16.00;94.40;;;;;;5026060;28;20065;-58
2023/06/05 02:29:43;;;;;;;6.50;3.10;;;16.00;94.30;;;;;;5025779;28;20048;-58
2023/06/05 02:32:09;;;;;;;8.57;2.88;;;16.00;94.40;;;;;;5026733;28;20044;-58
2023/06/05 02:34:35;;;;;;;2.50;1.88;;;16.00;94.50;;;;;;5024051;28;20061;-58
2023/06/05 02:37:02;;;;;;;6.82;2.97;;;15.90;94.50;;;;;;5027451;28;20045;-58
2023/06/05 02:39:29;;;;;;;7.60;3.33;;;15.90;94.60;;;;;;5024648;28;20052;-58
2023/06/05 02:41:55;;;;;;;5.45;3.38;;;15.90;94.60;;;;;;5027241;28;20042;-58
2023/06/05 02:44:21;;;;;;;6.10;3.28;;;15.90;94.60;;;;;;5056782;28;20547;-58
2023/06/05 02:46:47;;;;;;;3.88;2.22;;;15.80;94.60;;;;;;5024184;28;20117;-58
2023/06/05 02:49:13;;;;;;;5.35;3.40;;;15.80;94.60;;;;;;5026231;28;20038;-58
2023/06/05 02:51:39;;;;;;;5.82;2.78;;;15.80;94.70;;;;;;5025204;28;20050;-58
2023/06/05 02:54:07;;;;;;;7.90;2.25;;;15.70;94.70;;;;;;5026398;28;20049;-58
2023/06/05 02:56:34;;;;;;;9.93;4.05;;;15.80;94.70;;;;;;5023478;28;20136;-58
2023/06/05 02:59:02;;;;;;;6.15;3.25;;;15.70;94.80;;;;;;5022760;28;20528;-58
2023/06/05 03:01:34;;;;;;;7.80;2.85;;;15.70;94.80;;;;;;5024422;28;20523;-58
2023/06/05 03:04:02;;;;;;;8.10;3.20;;;15.70;94.90;;;;;;5024860;28;20076;-58
2023/06/05 03:06:33;;;;;;;7.68;3.60;;;15.60;94.80;;;;;;5025224;28;20080;-58
2023/06/05 03:08:59;;;;;;;8.60;2.70;;;15.60;94.90;;;;;;5025136;28;20037;-58
2023/06/05 03:11:26;;;;;;;6.38;3.72;;;15.60;94.90;;;;;;5022430;28;20037;-58
2023/06/05 03:13:52;;;;;;;7.07;3.80;;;15.50;95.00;;;;;;5025712;28;20074;-58
2023/06/05 03:16:18;;;;;;;11.35;5.43;;;15.50;95.00;;;;;;5024128;28;20161;-58
2023/06/05 03:18:45;;;;;;;10.68;4.05;;;15.50;95.10;;;;;;5024683;28;20046;-58
2023/06/05 03:21:11;;;;;;;7.47;3.03;;;15.50;95.10;;;;;;5022559;28;20112;-58
2023/06/05 03:23:37;;;;;;;8.20;3.13;;;15.50;95.10;;;;;;5024687;28;20936;-59
2023/06/05 03:26:03;;;;;;;7.65;3.40;;;15.50;95.10;;;;;;5025139;28;20046;-58
2023/06/05 03:28:33;;;;;;;8.23;3.38;;;15.50;95.10;;;;;;5023444;28;20048;-58
2023/06/05 03:30:59;;;;;;;7.13;3.85;;;15.50;95.20;;;;;;5024828;28;20072;-58
2023/06/05 03:33:25;;;;;;;4.20;2.80;;;15.40;95.10;;;;;;5008862;28;20527;-58
2023/06/05 03:35:52;;;;;;;10.77;3.65;;;15.40;95.20;;;;;;5023781;28;20052;-58
2023/06/05 03:38:18;;;;;;;6.35;3.10;;;15.40;95.30;;;;;;5025216;28;20473;-58
2023/06/05 03:40:44;;;;;;;7.57;3.67;;;15.30;95.30;;;;;;5024022;28;20077;-58
2023/06/05 03:43:10;;;;;;;7.97;3.17;;;15.30;95.40;;;;;;5024804;28;20044;-58
2023/06/05 03:45:39;;;;;;;4.45;2.65;;;15.30;95.50;;;;;;5022494;28;20491;-58
2023/06/05 03:48:05;;;;;;;4.90;2.90;;;15.20;95.50;;;;;;5025699;28;20080;-57
2023/06/05 03:50:33;;;;;;;4.75;2.80;;;15.20;95.50;;;;;;5024817;28;20346;-58
2023/06/05 03:53:05;;;;;;;5.38;3.17;;;15.20;95.60;;;;;;5009480;28;20555;-57
2023/06/05 03:55:45;;;;;;;6.03;2.72;;;15.20;95.70;;;;;;5023729;28;20561;-58
2023/06/05 03:58:17;;;;;;;7.00;2.38;;;;;;;;;;5024505;28;20053;-58
2023/06/05 04:00:44;;;;;;;8.85;3.85;;;15.20;99.90;;;;;;5024395;28;20041;-58
2023/06/05 04:03:11;;;;;;;8.35;3.53;;;15.20;95.70;;;;;;5025956;28;20064;-58
2023/06/05 04:05:41;;;;;;;5.97;3.00;;;15.20;95.70;;;;;;5022837;28;20054;-58
2023/06/05 04:08:11;;;;;;;7.32;3.40;;;15.10;95.70;;;;;;5024343;28;20542;-57
2023/06/05 04:10:37;;;;;;;5.45;3.42;;;15.10;95.70;;;;;;5024479;28;20041;-58
2023/06/05 04:13:03;;;;;;;5.18;2.85;;;15.10;95.80;;;;;;5025688;28;20464;-58
2023/06/05 04:15:29;;;;;;;4.00;2.03;;;15.10;95.80;;;;;;5022966;28;20058;-60
2023/06/05 04:17:55;;;;;;;9.82;3.78;;;15.00;95.80;;;;;;5021969;28;20052;-58
2023/06/05 04:20:21;;;;;;;11.07;3.53;;;15.00;95.90;;;;;;5021828;28;21044;-58
2023/06/05 04:22:47;;;;;;;4.85;2.63;;;15.00;96.00;;;;;;5024247;28;20037;-58
2023/06/05 04:25:13;;;;;;;10.68;3.70;;;15.00;96.00;;;;;;5023478;28;20046;-58
2023/06/05 04:27:40;;;;;;;9.80;3.53;;;15.00;96.40;;;;;;5008190;28;20069;-58
2023/06/05 04:30:07;;;;;;;12.25;5.20;;;14.90;96.10;;;;;;5025510;28;20166;-57
2023/06/05 04:32:36;;;;;;;7.25;3.00;;;14.90;96.10;;;;;;5054780;28;20752;-58
2023/06/05 04:35:03;;;;;;;5.53;3.72;;;14.90;96.20;;;;;;5022864;28;20045;-58
2023/06/05 04:37:29;;;;;;;21.80;4.97;;;14.90;96.30;;;;;;5024650;28;20026;-58
2023/06/05 04:39:55;;;;;;;8.65;3.70;;;14.90;96.30;;;;;;5025534;28;20431;-58
2023/06/05 04:42:21;;;;;;;6.85;3.90;;;15.00;96.40;;;;;;5020251;28;20049;-58
2023/06/05 04:45:01;;;;;;;9.60;3.97;;;15.00;96.40;;;;;;5024055;28;20095;-57
2023/06/05 04:47:27;;;;;;;7.50;3.08;;;14.90;96.40;;;;;;5021379;28;20057;-58
2023/06/05 04:49:54;;;;;;;8.90;3.67;;;14.90;96.50;;;;;;5022626;28;20038;-58
2023/06/05 04:52:20;;;;;;;8.75;3.47;;;14.90;96.50;;;;;;5024152;28;20041;-59
2023/06/05 04:54:47;;;;;;;6.63;3.00;;;14.90;96.50;;;;;;5021173;28;20070;-59
2023/06/05 04:57:13;;;;;;;8.63;4.63;;;14.90;96.50;;;;;;5022725;28;20538;-58
2023/06/05 04:59:38;;;;;;;8.60;3.90;;;14.90;96.60;;;;;;5019956;28;20042;-58
2023/06/05 05:02:04;;;;;;;8.00;3.38;;;14.90;96.60;;;;;;5021903;28;20136;-59
2023/06/05 05:04:30;;;;;;;7.18;3.72;;;14.90;96.80;;;;;;5054665;28;20042;-59
2023/06/05 05:07:00;;;;;;;6.53;3.38;;;14.90;96.80;;;;;;5038433;28;20129;-58
2023/06/05 05:09:27;;;;;;;9.63;3.60;;;14.90;96.80;;;;;;5020998;28;20112;-58
2023/06/05 05:11:53;;;;;;;4.70;2.58;;;14.90;96.80;;;;;;5023149;28;20512;-58
2023/06/05 05:14:19;;;;;;;10.77;4.25;;;14.90;96.90;;;;;;5024031;28;20053;-59
2023/06/05 05:16:44;;;;;;;7.05;3.45;;;14.90;96.90;;;;;;5020026;28;20543;-58
2023/06/05 05:19:10;;;;;;;6.90;3.42;;;14.90;97.10;;;;;;5019221;28;20702;-59
2023/06/05 05:21:37;;;;;;;7.03;2.58;;;14.90;97.10;;;;;;5022260;28;20096;-58
2023/06/05 05:24:03;;;;;;;11.48;4.15;;;14.80;97.20;;;;;;5021773;28;20255;-58
2023/06/05 05:26:30;;;;;;;9.63;4.78;;;14.80;97.30;;;;;;5022131;28;20042;-58
2023/06/05 05:28:55;;;;;;;8.50;4.95;;;14.90;97.50;;;;;;5053976;28;20128;-58
2023/06/05 05:31:22;;;;;;;8.15;3.58;;;14.90;97.50;;;;;;5024426;28;20566;-59
2023/06/05 05:33:48;;;;;;;6.25;3.47;;;15.00;97.40;;;;;;5025456;28;20046;-58
2023/06/05 05:36:14;;;;;;;6.70;2.97;;;15.00;97.40;;;;;;5024025;28;20034;-59
2023/06/05 05:38:40;;;;;;;5.72;4.05;;;15.00;97.40;;;;;;5056428;28;20050;-58
2023/06/05 05:41:06;;;;;;;8.98;3.40;;;15.00;97.50;;;;;;5022487;28;20042;-59
2023/06/05 05:43:32;;;;;;;7.10;4.25;;;15.00;97.60;;;;;;5023221;28;20045;-59
2023/06/05 05:45:57;;;;;;;7.70;4.00;;;15.00;97.70;;;;;;5009467;28;20918;-58
2023/06/05 05:48:23;;;;;;;10.02;4.43;;;15.00;97.70;;;;;;5025301;28;20092;-59
2023/06/05 05:50:49;;;;;;;11.07;4.30;;;15.00;97.80;;;;;;5023449;28;20045;-58
2023/06/05 05:53:15;;;;;;;14.02;3.78;;;15.10;97.80;;;;;;5027217;28;20053;-58
2023/06/05 05:55:41;;;;;;;8.85;3.55;;;15.10;97.90;;;;;;5024164;28;20053;-59
2023/06/05 05:58:07;;;;;;;8.75;2.83;;;15.10;98.00;;;;;;5022823;28;20068;-58
2023/06/05 06:00:34;;;;;;;8.52;4.22;;;15.10;98.10;;;;;;5024129;28;20033;-59
2023/06/05 06:03:00;;;;;;;9.02;3.22;;;15.10;98.30;;;;;;5026921;28;20044;-59
2023/06/05 06:05:26;;;;;;;6.60;3.10;;;15.10;98.50;;;;;;5024162;28;20105;-58
2023/06/05 06:07:52;;;;;;;7.25;3.00;;;15.00;98.50;;;;;;5006130;28;20038;-58
2023/06/05 06:10:18;;;;;;;10.85;3.60;;;15.10;98.80;;;;;;5026430;28;20045;-58
2023/06/05 06:12:45;;;;;;;9.90;4.35;;;15.10;99.00;;;;;;5024933;28;20534;-59
2023/06/05 06:15:11;;;;;;;6.13;3.47;;;15.10;99.40;;;;;;5023526;28;20597;-58
2023/06/05 06:17:37;;;;;;;17.05;4.35;;;15.10;99.60;;;;;;5024877;28;20050;-58
2023/06/05 06:20:05;;;;;;;7.90;4.38;;;15.20;99.90;;;;;;5023178;28;20040;-58
2023/06/05 06:22:31;;;;;;;9.25;3.75;;;15.20;99.90;;;;;;5024240;28;20085;-58
2023/06/05 06:24:57;;;;;;;11.50;3.53;;;15.20;99.90;;;;;;5025859;28;20041;-58
2023/06/05 06:27:24;;;;;;;8.50;4.32;;;15.30;99.90;;;;;;5018508;28;20534;-58
2023/06/05 06:29:52;;;;;;;12.52;4.70;;;15.30;99.90;;;;;;5026166;28;20049;-57
2023/06/05 06:32:18;;;;;;;17.45;4.40;;;15.40;99.90;;;;;;5024584;28;20041;-58
2023/06/05 06:34:44;;;;;;;7.53;3.83;;;15.40;99.90;;;;;;5025809;28;20045;-58
2023/06/05 06:37:16;;;;;;;11.52;2.80;;;15.50;99.90;;;;;;5025658;28;20042;-57
2023/06/05 06:39:43;;;;;;;4.05;2.53;;;15.40;99.90;;;;;;5023281;28;20042;-57
2023/06/05 06:42:12;;;;;;;10.45;4.00;;;15.40;99.90;;;;;;5023513;28;20152;-57
2023/06/05 06:44:39;;;;;;;10.55;4.13;;;15.40;99.90;;;;;;5024288;28;20044;-58
2023/06/05 06:47:05;;;;;;;15.35;6.45;;;15.50;99.90;;;;;;5025267;28;20050;-57
2023/06/05 06:49:31;;;;;;;14.75;3.30;;;15.50;99.90;;;;;;5026163;28;20484;-57
2023/06/05 06:51:57;;;;;;;22.52;5.10;;;15.60;99.90;;;;;;5027669;28;20042;-57
2023/06/05 06:54:25;;;;;;;8.45;3.85;;;15.60;99.90;;;;;;5008076;28;20541;-58
2023/06/05 06:56:51;;;;;;;12.88;6.03;;;15.60;99.90;;;;;;4993312;28;20567;-58
2023/06/05 06:59:16;;;;;;;14.43;4.70;;;15.70;99.90;;;;;;5026697;28;20060;-57
2023/06/05 07:01:46;;;;;;;11.55;3.90;;;15.70;99.90;;;;;;5024771;28;20053;-57
2023/06/05 07:04:16;;;;;;;10.50;4.50;;;15.70;99.90;;;;;;5057911;28;20427;-57
2023/06/05 07:06:45;;;;;;;7.97;3.65;;;15.80;99.90;;;;;;5024580;28;20487;-57
2023/06/05 07:09:11;;;;;;;12.32;4.50;;;15.80;99.90;;;;;;5026703;28;20037;-57
2023/06/05 07:11:37;;;;;;;12.32;3.30;;;15.80;99.90;;;;;;5023874;28;20416;-57
2023/06/05 07:14:03;;;;;;;8.55;3.70;;;15.80;99.90;;;;;;5026297;28;20056;-57
2023/06/05 07:16:28;;;;;;;17.08;4.70;;;15.90;99.90;;;;;;5024950;28;20563;-58
2023/06/05 07:18:55;;;;;;;25.42;4.90;;;15.90;99.90;;;;;;5025098;28;20201;-57
2023/06/05 07:21:21;;;;;;;7.93;3.88;;;16.00;99.90;;;;;;5024651;28;20153;-58
2023/06/05 07:23:53;;;;;;;12.38;4.97;;;16.00;99.90;;;;;;5025412;28;20107;-58
2023/06/05 07:26:19;;;;;;;13.65;3.83;;;16.00;99.90;;;;;;5026191;28;20089;-58
2023/06/05 07:28:46;;;;;;;7.43;4.35;;;16.00;99.90;;;;;;5024489;28;20057;-57
2023/06/05 07:31:13;;;;;;;7.20;3.80;;;16.10;99.90;;;;;;5023881;28;20049;-57
2023/06/05 07:33:39;;;;;;;13.00;4.55;;;16.10;99.90;;;;;;5023444;28;20057;-58
2023/06/05 07:36:05;;;;;;;12.70;4.45;;;16.20;99.90;;;;;;5024644;28;20049;-57
2023/06/05 07:38:32;;;;;;;7.30;3.33;;;16.20;99.90;;;;;;5024706;28;20046;-57
2023/06/05 07:40:58;;;;;;;9.88;5.45;;;16.30;99.90;;;;;;5024727;28;20056;-57
2023/06/05 07:43:27;;;;;;;10.77;3.92;;;16.30;99.90;;;;;;5025707;28;20038;-58
2023/06/05 07:45:53;;;;;;;7.07;3.42;;;16.40;99.90;;;;;;5024109;28;20054;-58
2023/06/05 07:48:20;;;;;;;10.73;5.07;;;16.40;99.90;;;;;;5023512;28;20042;-58
2023/06/05 07:50:46;;;;;;;47.50;9.65;;;16.50;99.90;;;;;;5022910;28;20045;-59
2023/06/05 07:53:11;;;;;;;14.13;4.53;;;16.50;99.90;;;;;;5008974;28;20398;-58
2023/06/05 07:55:37;;;;;;;11.80;4.30;;;16.50;99.90;;;;;;5023149;28;20054;-58
2023/06/05 07:58:03;;;;;;;5.18;2.83;;;16.60;99.90;;;;;;5024875;28;21263;-58
2023/06/05 08:00:28;;;;;;;7.35;3.63;;;16.60;99.90;;;;;;5024258;28;20559;-57
2023/06/05 08:02:54;;;;;;;11.57;4.75;;;16.70;99.90;;;;;;5023112;28;20136;-58
2023/06/05 08:05:20;;;;;;;9.07;4.13;;;16.70;99.90;;;;;;5025243;28;20048;-57
2023/06/05 08:07:46;;;;;;;5.03;3.40;;;16.70;99.90;;;;;;5024818;28;20042;-60
2023/06/05 08:10:13;;;;;;;8.15;3.08;;;17.00;99.90;;;;;;5023202;28;20570;-58
2023/06/05 08:12:39;;;;;;;9.40;4.35;;;16.90;99.90;;;;;;5024953;28;20046;-57
2023/06/05 08:15:06;;;;;;;8.82;4.10;;;16.90;99.90;;;;;;5025680;28;20042;-58
2023/06/05 08:17:31;;;;;;;13.55;4.63;;;17.00;99.90;;;;;;5023830;28;20045;-58
2023/06/05 08:19:57;;;;;;;4.35;2.22;;;17.00;99.90;;;;;;5024618;28;20050;-57
2023/06/05 08:22:23;;;;;;;9.43;3.92;;;17.00;99.90;;;;;;5026006;28;20112;-58
2023/06/05 08:24:50;;;;;;;9.63;3.92;;;17.00;99.90;;;;;;5023502;28;20034;-58
2023/06/05 08:27:19;;;;;;;5.88;3.63;;;17.10;99.90;;;;;;5022299;28;21177;-58
2023/06/05 08:29:45;;;;;;;6.90;3.80;;;17.20;99.90;;;;;;5023345;28;20081;-58
2023/06/05 08:32:10;;;;;;;8.20;3.72;;;17.20;99.90;;;;;;5023689;28;20040;-58
2023/06/05 08:34:36;;;;;;;7.03;3.38;;;17.30;99.90;;;;;;5022512;28;20539;-58
2023/06/05 08:37:02;;;;;;;9.23;2.70;;;17.30;99.90;;;;;;5023575;28;20045;-59
2023/06/05 08:39:31;;;;;;;9.65;4.28;;;17.40;99.90;;;;;;5023548;28;20060;-59
2023/06/05 08:42:02;;;;;;;8.82;3.53;;;17.40;99.90;;;;;;5023779;28;20084;-59
2023/06/05 08:44:28;;;;;;;7.43;3.97;;;17.40;99.90;;;;;;5023361;28;20042;-58
2023/06/05 08:47:01;;;;;;;7.78;3.03;;;17.50;99.90;;;;;;5020143;28;20064;-58
2023/06/05 08:49:35;;;;;;;4.40;2.80;;;17.50;99.90;;;;;;5053161;28;20046;-57
2023/06/05 08:52:03;;;;;;;7.10;3.35;;;17.60;99.90;;;;;;5024499;28;20049;-58
2023/06/05 08:54:33;;;;;;;9.77;3.53;;;17.60;99.90;;;;;;5024821;28;20104;-58
2023/06/05 08:57:00;;;;;;;9.30;4.22;;;17.70;99.90;;;;;;5021373;28;20049;-58
2023/06/05 08:59:26;;;;;;;10.98;3.88;;;17.80;99.90;;;;;;5023276;28;20133;-58
2023/06/05 09:01:52;;;;;;;9.85;3.40;;;17.70;99.90;;;;;;5021700;28;20046;-59
2023/06/05 09:04:19;;;;;;;12.20;3.47;;;17.80;99.90;;;;;;5020583;28;20052;-59
2023/06/05 09:06:47;;;;;;;5.65;3.63;;;17.90;99.90;;;;;;5021993;28;20065;-59
2023/06/05 09:09:15;;;;;;;5.25;3.10;;;17.90;99.90;;;;;;5025908;28;20045;-58
2023/06/05 09:11:41;;;;;;;5.65;2.92;;;18.00;99.90;;;;;;5023568;28;20045;-58
2023/06/05 09:14:07;;;;;;;14.85;3.70;;;18.00;99.90;;;;;;5026237;28;20091;-58
2023/06/05 09:16:43;;;;;;;37.90;5.78;;;18.10;99.90;;;;;;5026133;28;20040;-56
2023/06/05 09:19:13;;;;;;;7.65;2.45;;;18.10;99.90;;;;;;5025023;28;20049;-55
2023/06/05 09:21:39;;;;;;;8.63;2.90;;;18.10;99.90;;;;;;5026439;28;20038;-56
2023/06/05 09:24:23;;;;;;;7.43;3.00;;;18.30;99.90;;;;;;5026343;28;20045;-55
2023/06/05 09:27:07;;;;;;;9.23;4.10;;;18.30;99.90;;;;;;5027728;28;20107;-56
2023/06/05 09:29:38;;;;;;;8.90;2.80;;;18.30;99.90;;;;;;5025750;28;20050;-56
2023/06/05 09:32:19;;;;;;;9.45;3.42;;;18.30;99.90;;;;;;5026166;28;20045;-56
2023/06/05 09:34:45;;;;;;;5.15;2.70;;;18.40;99.90;;;;;;5026448;28;20045;-55
2023/06/05 09:37:12;;;;;;;9.88;3.90;;;18.50;99.90;;;;;;5026306;28;20045;-56
2023/06/05 09:39:40;;;;;;;22.38;4.43;;;18.50;99.90;;;;;;5026879;28;20045;-56
2023/06/05 09:42:06;;;;;;;5.78;3.85;;;18.50;99.90;;;;;;5026665;28;20053;-55
2023/06/05 09:44:33;;;;;;;11.43;3.22;;;18.60;99.90;;;;;;5026857;28;20578;-55
2023/06/05 09:47:08;;;;;;;5.03;3.38;;;18.70;99.90;;;;;;5026272;28;20079;-55
2023/06/05 09:49:40;;;;;;;9.18;2.92;;;18.80;99.90;;;;;;5026039;28;20136;-55
2023/06/05 09:52:11;;;;;;;9.70;2.75;;;18.80;99.90;;;;;;5027481;28;20041;-55
2023/06/05 09:54:38;;;;;;;9.70;3.67;;;18.90;99.90;;;;;;5026661;28;20120;-55
2023/06/05 09:57:09;;;;;;;5.72;2.38;;;18.90;99.90;;;;;;5026414;28;20037;-55
2023/06/05 09:59:45;;;;;;;8.90;2.80;;;18.90;99.90;;;;;;5024909;28;20141;-55
2023/06/05 10:02:16;;;;;;;5.40;2.67;;;19.00;99.90;;;;;;5024190;28;20041;-55
2023/06/05 10:05:10;;;;;;;5.15;2.72;;;19.00;99.40;;;;;;5026513;28;20495;-55
2023/06/05 10:07:39;;;;;;;5.68;3.35;;;19.10;99.50;;;;;;5016585;28;20049;-55
2023/06/05 10:10:06;;;;;;;4.13;2.35;;;19.10;99.10;;;;;;5010156;28;20547;-55
2023/06/05 10:12:34;;;;;;;7.72;2.88;;;19.20;99.10;;;;;;5024193;28;20044;-55
2023/06/05 10:15:01;;;;;;;5.55;2.75;;;19.30;99.00;;;;;;5022539;28;20168;-56
2023/06/05 10:17:28;;;;;;;4.70;2.95;;;19.30;98.90;;;;;;5024212;28;20480;-58
2023/06/05 10:19:54;;;;;;;8.25;2.90;;;19.40;98.70;;;;;;5024582;28;22202;-56
2023/06/05 10:22:20;;;;;;;9.18;3.65;;;19.40;98.20;;;;;;5025323;28;20053;-58
2023/06/05 10:24:54;;;;;;;10.43;3.10;;;19.40;98.00;;;;;;5025341;28;20536;-55
2023/06/05 10:27:56;;;;;;;3.83;2.45;;;19.50;98.00;;;;;;5024907;28;20115;-55
2023/06/05 10:30:49;;;;;;;5.35;2.88;;;19.50;97.80;;;;;;5026001;28;20049;-56
2023/06/05 10:33:48;;;;;;;12.93;3.67;;;19.60;97.60;;;;;;5023670;28;20046;-56
2023/06/05 10:36:39;;;;;;;5.60;2.67;;;19.70;97.30;;;;;;5025249;28;20038;-56
2023/06/05 10:39:07;;;;;;;8.90;4.07;;;19.70;96.80;;;;;;5026035;28;20564;-56
2023/06/05 10:41:33;;;;;;;7.88;3.40;;;19.70;96.70;;;;;;5024477;28;20061;-56
2023/06/05 10:43:59;;;;;;;6.30;2.47;;;19.80;96.70;;;;;;5022493;28;20057;-55
2023/06/05 10:46:32;;;;;;;4.40;2.70;;;19.90;96.40;;;;;;5023530;28;20130;-55
2023/06/05 10:49:08;;;;;;;6.53;3.22;;;20.00;96.30;;;;;;5023352;28;20504;-56
2023/06/05 10:51:37;;;;;;;4.53;2.20;;;20.00;96.20;;;;;;5022657;28;20052;-55
2023/06/05 10:54:07;;;;;;;8.25;3.55;;;20.00;95.50;;;;;;5024706;28;20122;-55
2023/06/05 10:57:06;;;;;;;3.97;3.08;;;20.00;95.60;;;;;;5026710;28;20037;-56
2023/06/05 10:59:37;;;;;;;4.90;2.67;;;20.10;95.30;;;;;;5021631;28;20590;-55
2023/06/05 11:02:11;;;;;;;6.67;3.00;;;20.20;95.10;;;;;;5025441;28;20054;-56
2023/06/05 11:05:04;;;;;;;6.63;2.75;;;20.20;95.10;;;;;;5024850;28;20516;-56
2023/06/05 11:07:30;;;;;;;8.07;2.50;;;20.30;94.50;;;;;;5024183;28;20037;-55
2023/06/05 11:10:15;;;;;;;4.43;3.03;;;20.30;93.50;;;;;;5019997;28;20164;-56
2023/06/05 11:12:41;;;;;;;11.50;4.43;;;20.40;93.60;;;;;;5023484;28;20041;-56
2023/06/05 11:15:07;;;;;;;13.70;3.13;;;20.40;92.90;;;;;;5024084;28;20065;-56
2023/06/05 11:17:39;;;;;;;6.57;3.03;;;20.40;92.90;;;;;;5023637;28;20043;-56
2023/06/05 11:20:09;;;;;;;8.80;3.10;;;20.40;92.90;;;;;;5025549;28;20048;-56
2023/06/05 11:22:55;;;;;;;15.23;3.67;;;20.50;92.90;;;;;;5022489;28;20062;-56
2023/06/05 11:25:21;;;;;;;5.60;3.35;;;20.60;92.40;;;;;;5022819;28;20100;-56
2023/06/05 11:27:49;;;;;;;14.23;3.35;;;20.60;92.30;;;;;;5023985;28;20081;-56
2023/06/05 11:30:20;;;;;;;11.05;2.92;;;20.60;92.20;;;;;;5025798;28;20168;-56
2023/06/05 11:32:46;;;;;;;6.15;2.88;;;20.60;92.20;;;;;;5024105;28;20647;-56
2023/06/05 11:35:12;;;;;;;6.20;3.00;;;20.70;92.10;;;;;;5022365;28;20049;-56
2023/06/05 11:37:39;;;;;;;2.80;2.13;;;20.70;92.00;;;;;;5021903;28;20409;-56
2023/06/05 11:40:09;;;;;;;4.30;2.90;;;20.80;91.50;;;;;;5006192;28;20683;-56
2023/06/05 11:42:39;;;;;;;6.25;2.83;;;20.90;91.30;;;;;;5022942;28;20072;-60
2023/06/05 11:45:14;;;;;;;5.60;2.65;;;20.70;90.60;;;;;;5025720;28;20049;-56
2023/06/05 11:47:41;;;;;;;11.80;3.33;;;21.00;90.20;;;;;;5022615;28;20522;-58
2023/06/05 11:50:16;;;;;;;6.10;2.72;;;21.10;90.10;;;;;;5024830;28;20473;-56
2023/06/05 11:52:42;;;;;;;3.50;2.63;;;21.10;90.00;;;;;;5021029;28;20045;-56
2023/06/05 11:55:14;;;;;;;3.60;2.03;;;21.10;89.80;;;;;;5024617;28;20866;-56
2023/06/05 11:57:46;;;;;;;4.25;2.22;;;21.10;89.30;;;;;;5022516;28;20034;-55
2023/06/05 12:00:12;;;;;;;;;;;21.10;88.00;;;;;;5024803;28;20177;-56
2023/06/05 12:02:39;;;;;;;4.60;3.08;;;21.20;87.60;;;;;;5025668;28;19948;-56
2023/06/05 12:05:11;;;;;;;9.32;2.63;;;21.20;88.30;;;;;;5024038;28;20465;-56
2023/06/05 12:07:39;;;;;;;5.70;2.80;;;21.20;88.20;;;;;;5022724;28;20044;-56
2023/06/05 12:10:06;;;;;;;3.67;2.55;;;21.30;87.10;;;;;;5019408;28;20042;-56
2023/06/05 12:12:33;;;;;;;14.75;3.40;;;21.40;85.60;;;;;;5024711;28;20046;-56
2023/06/05 12:15:20;;;;;;;9.60;2.70;;;21.50;83.30;;;;;;5020146;28;20548;-56
2023/06/05 12:17:56;;;;;;;7.60;2.60;;;21.50;83.40;;;;;;5023522;28;20053;-58
2023/06/05 12:20:22;;;;;;;3.42;2.63;;;21.60;83.60;;;;;;5024765;28;20141;-56
2023/06/05 12:22:48;;;;;;;4.18;2.20;;;21.60;83.80;;;;;;5022713;28;20077;-56
2023/06/05 12:25:16;;;;;;;5.18;2.33;;;21.80;83.00;;;;;;5022731;28;20138;-56
2023/06/05 12:27:42;;;;;;;5.15;2.42;;;21.80;82.50;;;;;;5023631;28;20068;-56
2023/06/05 12:30:09;;;;;;;4.95;2.65;;;21.80;82.50;;;;;;5024105;28;20046;-56
2023/06/05 12:32:35;;;;;;;8.65;3.00;;;21.80;82.50;;;;;;5024085;28;20053;-56
2023/06/05 12:35:01;;;;;;;5.65;2.83;;;21.80;82.60;;;;;;5025601;28;20045;-56
2023/06/05 12:37:32;;;;;;;9.32;2.95;;;21.90;82.30;;;;;;5025079;28;20037;-57
2023/06/05 12:40:05;;;;;;;11.13;3.13;;;22.00;81.50;;;;;;5022527;28;20120;-56
2023/06/05 12:42:37;;;;;;;9.15;3.80;;;22.10;81.90;;;;;;5024621;28;20103;-56
2023/06/05 12:45:07;;;;;;;5.72;2.60;;;22.10;81.10;;;;;;5028304;28;20042;-56
2023/06/05 12:47:40;;;;;;;11.20;2.72;;;22.10;80.70;;;;;;5026257;28;20053;-56
2023/06/05 12:50:15;;;;;;;10.05;2.95;;;22.20;80.10;;;;;;5027887;28;20065;-56
2023/06/05 12:52:42;;;;;;;4.15;2.60;;;22.10;80.20;;;;;;5027930;28;20518;-56